createdAt,value
2017-05-28T00:02:05.433Z,2.82
2017-05-28T00:04:32.371Z,4.62
2017-05-28T00:06:59.323Z,3.20
2017-05-28T00:09:26.229Z,3.32
2017-05-28T00:11:53.144Z,3.40
2017-05-28T00:14:20.098Z,3.83
2017-05-28T00:16:47.080Z,3.42
2017-05-28T00:19:13.993Z,3.58
2017-05-28T00:21:40.908Z,3.32
2017-05-28T00:24:07.868Z,4.62
2017-05-28T00:26:34.786Z,4.50
2017-05-28T00:29:01.691Z,3.93
2017-05-28T00:31:28.616Z,3.93
2017-05-28T00:33:55.556Z,3.40
2017-05-28T00:36:22.480Z,3.73
2017-05-28T00:38:49.404Z,3.12
2017-05-28T00:41:16.340Z,4.48
2017-05-28T00:43:43.313Z,4.65
2017-05-28T00:46:10.215Z,3.30
2017-05-28T00:48:37.160Z,4.68
2017-05-28T00:51:04.076Z,3.28
2017-05-28T00:53:30.992Z,3.73
2017-05-28T00:55:57.955Z,3.33
2017-05-28T00:58:24.863Z,3.13
2017-05-28T01:00:51.781Z,3.40
2017-05-28T01:03:18.723Z,3.58
2017-05-28T01:05:45.631Z,3.70
2017-05-28T01:08:12.534Z,3.58
2017-05-28T01:10:39.496Z,3.22
2017-05-28T01:13:06.408Z,3.87
2017-05-28T01:15:33.329Z,5.87
2017-05-28T01:18:00.293Z,4.25
2017-05-28T01:20:27.220Z,2.78
2017-05-28T01:22:54.136Z,3.97
2017-05-28T01:25:21.107Z,4.05
2017-05-28T01:27:48.038Z,3.07
2017-05-28T01:30:14.971Z,4.12
2017-05-28T01:32:41.964Z,3.55
2017-05-28T01:35:08.913Z,4.00
2017-05-28T01:37:35.862Z,3.38
2017-05-28T01:40:02.824Z,3.87
2017-05-28T01:42:29.818Z,4.20
2017-05-28T01:44:56.759Z,3.35
2017-05-28T01:47:23.695Z,3.78
2017-05-28T01:49:50.709Z,3.60
2017-05-28T01:52:17.644Z,3.98
2017-05-28T01:54:44.544Z,3.40
2017-05-28T01:57:11.483Z,3.85
2017-05-28T01:59:38.392Z,4.28
2017-05-28T02:02:05.336Z,4.05
2017-05-28T02:04:32.244Z,3.72
2017-05-28T02:06:59.160Z,4.28
2017-05-28T02:09:26.152Z,3.93
2017-05-28T02:11:53.103Z,4.02
2017-05-28T02:14:20.016Z,4.45
2017-05-28T02:16:46.965Z,6.03
2017-05-28T02:19:13.876Z,4.77
2017-05-28T02:21:40.787Z,4.02
2017-05-28T02:24:07.719Z,5.03
2017-05-28T02:26:34.632Z,6.28
2017-05-28T02:29:01.536Z,4.85
2017-05-28T02:31:28.493Z,4.77
2017-05-28T02:33:55.413Z,5.60
2017-05-28T02:36:22.318Z,5.20
2017-05-28T02:38:49.480Z,3.85
2017-05-28T02:41:16.400Z,4.58
2017-05-28T02:43:43.312Z,4.73
2017-05-28T02:46:10.269Z,4.65
2017-05-28T02:48:37.175Z,4.83
2017-05-28T02:51:04.144Z,4.58
2017-05-28T02:53:31.076Z,4.58
2017-05-28T02:55:57.992Z,4.90
2017-05-28T02:58:24.961Z,4.77
2017-05-28T03:00:51.907Z,5.17
2017-05-28T03:03:18.820Z,4.57
2017-05-28T03:05:45.764Z,4.88
2017-05-28T03:08:12.676Z,5.92
2017-05-28T03:10:39.613Z,5.22
2017-05-28T03:13:06.556Z,5.33
2017-05-28T03:15:33.459Z,4.85
2017-05-28T03:18:00.376Z,5.00
2017-05-28T03:20:27.330Z,4.92
2017-05-28T03:22:54.241Z,5.23
2017-05-28T03:25:21.253Z,6.35
2017-05-28T03:27:48.166Z,4.62
2017-05-28T03:30:15.072Z,4.88
2017-05-28T03:32:42.021Z,6.13
2017-05-28T03:35:08.936Z,5.37
2017-05-28T03:37:35.845Z,4.73
2017-05-28T03:40:02.787Z,5.17
2017-05-28T03:42:29.696Z,4.58
2017-05-28T03:44:56.636Z,4.68
2017-05-28T03:47:23.597Z,5.37
2017-05-28T03:49:50.499Z,4.80
2017-05-28T03:52:17.413Z,4.60
2017-05-28T03:54:44.362Z,5.20
2017-05-28T03:57:11.289Z,4.18
2017-05-28T03:59:38.196Z,4.68
2017-05-28T04:02:06.883Z,4.82
2017-05-28T04:04:33.798Z,4.23
2017-05-28T04:07:00.707Z,4.67
2017-05-28T04:09:27.667Z,4.32
2017-05-28T04:11:54.636Z,5.43
2017-05-28T04:14:21.540Z,4.48
2017-05-28T04:16:48.471Z,4.52
2017-05-28T04:19:15.431Z,4.78
2017-05-28T04:21:42.343Z,7.63
2017-05-28T04:24:09.268Z,7.23
2017-05-28T04:26:36.209Z,5.62
2017-05-28T04:29:03.134Z,5.27
2017-05-28T04:31:30.048Z,5.27
2017-05-28T04:33:57.028Z,5.55
2017-05-28T04:36:23.932Z,5.47
2017-05-28T04:38:50.833Z,5.20
2017-05-28T04:41:17.780Z,5.35
2017-05-28T04:43:44.687Z,5.10
2017-05-28T04:46:11.613Z,5.60
2017-05-28T04:48:38.552Z,4.90
2017-05-28T04:51:05.464Z,4.98
2017-05-28T04:53:32.380Z,4.35
2017-05-28T04:55:59.323Z,4.88
2017-05-28T04:58:26.229Z,5.08
2017-05-28T05:00:53.156Z,4.55
2017-05-28T05:03:20.116Z,4.20
2017-05-28T05:05:47.020Z,4.35
2017-05-28T05:20:58.876Z,4.80
2017-05-28T05:23:25.800Z,4.80
2017-05-28T05:25:52.726Z,5.90
2017-05-28T05:28:19.697Z,5.10
2017-05-28T05:30:46.637Z,5.07
2017-05-28T05:33:13.596Z,5.40
2017-05-28T05:35:40.568Z,4.83
2017-05-28T05:38:07.503Z,4.42
2017-05-28T05:40:34.516Z,4.70
2017-05-28T05:43:01.541Z,4.53
2017-05-28T05:45:28.455Z,4.68
2017-05-28T05:47:55.428Z,6.53
2017-05-28T05:50:22.373Z,4.97
2017-05-28T05:52:49.309Z,4.67
2017-05-28T05:55:16.265Z,5.07
2017-05-28T05:57:43.177Z,3.97
2017-05-28T06:00:10.100Z,4.35
2017-05-28T06:02:37.078Z,3.70
2017-05-28T06:05:04.029Z,4.22
2017-05-28T06:07:30.959Z,3.75
2017-05-28T06:09:57.913Z,4.23
2017-05-28T06:12:24.855Z,4.00
2017-05-28T06:14:51.809Z,3.80
2017-05-28T06:17:18.760Z,3.97
2017-05-28T06:19:45.680Z,4.07
2017-05-28T06:22:12.616Z,4.25
2017-05-28T06:24:39.593Z,4.52
2017-05-28T06:27:06.621Z,3.38
2017-05-28T06:29:33.562Z,4.33
2017-05-28T06:32:00.548Z,4.02
2017-05-28T06:34:26.745Z,2.98
2017-05-28T06:36:53.689Z,5.02
2017-05-28T06:39:20.657Z,6.02
2017-05-28T06:41:47.584Z,3.13
2017-05-28T06:44:14.569Z,3.57
2017-05-28T06:46:41.519Z,3.32
2017-05-28T06:49:08.485Z,3.87
2017-05-28T06:51:34.736Z,3.52
2017-05-28T06:54:01.741Z,3.28
2017-05-28T06:56:28.742Z,3.27
2017-05-28T06:58:55.716Z,3.25
2017-05-28T07:01:22.684Z,3.42
2017-05-28T07:03:49.616Z,3.12
2017-05-28T07:06:16.607Z,3.93
2017-05-28T07:08:43.525Z,3.53
2017-05-28T07:11:10.449Z,3.60
2017-05-28T07:13:37.470Z,3.03
2017-05-28T07:16:04.461Z,3.15
2017-05-28T07:18:31.422Z,2.85
2017-05-28T07:20:58.368Z,3.85
2017-05-28T07:23:25.344Z,3.43
2017-05-28T07:25:52.344Z,3.08
2017-05-28T07:28:19.264Z,3.03
2017-05-28T07:30:46.196Z,3.57
2017-05-28T07:33:13.209Z,3.45
2017-05-28T07:35:40.136Z,3.48
2017-05-28T07:38:07.085Z,3.18
2017-05-28T07:40:34.071Z,3.20
2017-05-28T07:43:01.016Z,2.90
2017-05-28T07:45:27.941Z,4.40
2017-05-28T07:47:54.921Z,3.10
2017-05-28T07:50:21.848Z,3.17
2017-05-28T07:52:51.952Z,4.37
2017-05-28T07:55:18.925Z,2.95
2017-05-28T07:57:45.896Z,3.17
2017-05-28T08:00:12.848Z,2.72
2017-05-28T08:02:39.814Z,2.72
2017-05-28T08:05:06.749Z,3.35
2017-05-28T08:07:33.695Z,3.00
2017-05-28T08:10:00.637Z,2.85
2017-05-28T08:12:27.585Z,2.73
2017-05-28T08:14:54.564Z,3.05
2017-05-28T08:17:21.496Z,2.80
2017-05-28T08:19:48.425Z,3.32
2017-05-28T08:22:15.381Z,2.97
2017-05-28T08:24:42.317Z,2.68
2017-05-28T08:27:09.524Z,2.50
2017-05-28T08:29:36.479Z,2.75
2017-05-28T08:32:03.412Z,2.77
2017-05-28T08:34:30.374Z,2.62
2017-05-28T08:36:57.304Z,2.88
2017-05-28T08:39:24.301Z,2.80
2017-05-28T08:41:51.344Z,2.92
2017-05-28T08:44:18.282Z,2.85
2017-05-28T08:46:45.265Z,3.98
2017-05-28T08:49:12.273Z,3.37
2017-05-28T08:51:39.225Z,2.65
2017-05-28T08:54:06.164Z,2.47
2017-05-28T08:56:33.112Z,2.73
2017-05-28T08:59:00.138Z,2.90
2017-05-28T09:01:27.076Z,3.88
2017-05-28T09:03:54.038Z,2.95
2017-05-28T09:06:20.999Z,3.50
2017-05-28T09:08:47.932Z,3.05
2017-05-28T09:11:14.863Z,2.93
2017-05-28T09:13:41.835Z,2.98
2017-05-28T09:16:08.778Z,2.80
2017-05-28T09:18:35.749Z,2.50
2017-05-28T09:21:01.946Z,3.10
2017-05-28T09:23:28.890Z,3.10
2017-05-28T09:25:55.861Z,4.87
2017-05-28T09:28:22.798Z,3.83
2017-05-28T09:30:49.777Z,3.78
2017-05-28T09:33:16.742Z,4.37
2017-05-28T09:35:43.696Z,4.82
2017-05-28T09:38:10.662Z,4.55
2017-05-28T09:40:37.641Z,3.72
2017-05-28T09:43:04.585Z,3.22
2017-05-28T09:45:31.538Z,3.90
2017-05-28T09:47:59.148Z,4.07
2017-05-28T09:50:26.072Z,3.68
2017-05-28T09:52:53.047Z,4.15
2017-05-28T09:55:19.984Z,3.27
2017-05-28T09:57:46.907Z,4.37
2017-05-28T10:00:13.870Z,3.65
2017-05-28T10:02:40.791Z,3.08
2017-05-28T10:05:07.710Z,4.10
2017-05-28T10:07:34.681Z,6.02
2017-05-28T10:10:01.641Z,3.85
2017-05-28T10:12:28.595Z,3.03
2017-05-28T10:14:55.548Z,3.12
2017-05-28T10:17:22.500Z,3.37
2017-05-28T10:19:49.425Z,3.82
2017-05-28T10:22:16.403Z,3.45
2017-05-28T10:24:43.343Z,3.37
2017-05-28T10:27:10.264Z,3.62
2017-05-28T10:29:37.220Z,3.70
2017-05-28T10:32:04.139Z,3.20
2017-05-28T10:34:31.085Z,2.73
2017-05-28T10:36:58.016Z,3.07
2017-05-28T10:39:24.965Z,3.13
2017-05-28T10:41:51.925Z,4.22
2017-05-28T10:44:18.889Z,3.20
2017-05-28T10:46:45.828Z,3.50
2017-05-28T10:49:12.749Z,3.38
2017-05-28T10:51:39.716Z,3.48
2017-05-28T10:54:06.634Z,3.13
2017-05-28T10:56:33.852Z,3.88
2017-05-28T10:59:00.805Z,3.08
2017-05-28T11:01:27.717Z,3.13
2017-05-28T11:03:54.632Z,3.38
2017-05-28T11:06:21.596Z,3.12
2017-05-28T11:08:48.549Z,3.20
2017-05-28T11:11:15.492Z,4.02
2017-05-28T11:13:42.440Z,3.28
2017-05-28T11:16:09.383Z,3.15
2017-05-28T11:18:36.349Z,3.68
2017-05-28T11:21:03.344Z,3.23
2017-05-28T11:23:30.297Z,3.30
2017-05-28T11:25:57.224Z,3.05
2017-05-28T11:28:24.199Z,3.18
2017-05-28T11:30:51.129Z,2.92
2017-05-28T11:33:18.044Z,3.10
2017-05-28T11:35:44.992Z,2.88
2017-05-28T11:38:11.929Z,3.70
2017-05-28T11:40:38.860Z,4.08
2017-05-28T11:43:05.811Z,2.98
2017-05-28T11:45:32.738Z,2.98
2017-05-28T11:47:59.666Z,2.78
2017-05-28T11:50:26.623Z,3.12
2017-05-28T11:52:53.565Z,2.95
2017-05-28T11:55:20.496Z,4.47
2017-05-28T11:57:47.453Z,2.83
2017-05-28T12:00:14.388Z,2.95
2017-05-28T12:02:41.392Z,2.98
2017-05-28T12:05:08.344Z,3.22
2017-05-28T12:07:35.310Z,2.85
2017-05-28T12:10:02.253Z,3.13
2017-05-28T12:12:29.173Z,4.93
2017-05-28T12:14:56.149Z,3.33
2017-05-28T12:17:23.088Z,2.63
2017-05-28T12:19:50.043Z,2.90
2017-05-28T12:22:17.005Z,2.57
2017-05-28T12:24:43.941Z,2.52
2017-05-28T12:27:10.869Z,5.40
2017-05-28T12:29:37.821Z,3.48
2017-05-28T12:32:04.872Z,3.12
2017-05-28T12:34:31.797Z,3.58
2017-05-28T12:36:58.720Z,2.82
2017-05-28T12:39:25.685Z,2.72
2017-05-28T12:41:52.601Z,3.05
2017-05-28T12:44:19.524Z,2.75
2017-05-28T12:46:46.525Z,3.08
2017-05-28T12:49:13.544Z,3.28
2017-05-28T12:51:40.467Z,3.27
2017-05-28T12:54:07.460Z,2.88
2017-05-28T12:56:34.385Z,3.43
2017-05-28T12:59:01.341Z,3.20
2017-05-28T13:01:28.296Z,3.03
2017-05-28T13:03:55.224Z,3.07
2017-05-28T13:06:22.179Z,2.98
2017-05-28T13:08:49.250Z,3.63
2017-05-28T13:11:16.182Z,3.30
2017-05-28T13:13:43.145Z,3.23
2017-05-28T13:16:10.100Z,2.68
2017-05-28T13:18:37.937Z,2.98
2017-05-28T13:21:04.894Z,3.03
2017-05-28T13:23:31.894Z,3.10
2017-05-28T13:25:58.816Z,3.15
2017-05-28T13:28:25.761Z,3.00
2017-05-28T13:30:52.680Z,3.12
2017-05-28T13:33:19.649Z,3.58
2017-05-28T13:35:46.586Z,3.30
2017-05-28T13:38:13.526Z,3.27
2017-05-28T13:40:40.499Z,3.32
2017-05-28T13:43:07.440Z,3.00
2017-05-28T13:45:34.388Z,3.72
2017-05-28T13:48:01.376Z,3.27
2017-05-28T13:50:28.292Z,3.22
2017-05-28T13:52:55.221Z,4.25
2017-05-28T13:55:22.196Z,3.55
2017-05-28T13:57:49.132Z,3.78
2017-05-28T14:00:16.057Z,3.72
2017-05-28T14:02:43.036Z,3.90
2017-05-28T14:05:09.973Z,3.37
2017-05-28T14:07:36.893Z,3.88
2017-05-28T14:10:03.855Z,3.57
2017-05-28T14:12:30.787Z,4.17
2017-05-28T14:14:57.700Z,3.62
2017-05-28T14:17:24.641Z,4.00
2017-05-28T14:19:51.580Z,6.22
2017-05-28T14:22:18.508Z,3.87
2017-05-28T14:24:45.469Z,4.08
2017-05-28T14:27:12.384Z,4.02
2017-05-28T14:29:39.296Z,3.85
2017-05-28T14:32:06.273Z,4.02
2017-05-28T14:34:33.196Z,4.10
2017-05-28T14:37:00.109Z,4.00
2017-05-28T14:39:27.073Z,4.92
2017-05-28T14:41:53.275Z,5.82
2017-05-28T14:44:20.468Z,4.43
2017-05-28T14:46:47.501Z,5.10
2017-05-28T14:49:14.430Z,4.07
2017-05-28T14:51:41.371Z,4.38
2017-05-28T14:54:08.324Z,4.92
2017-05-28T14:56:35.276Z,4.65
2017-05-28T14:59:02.250Z,6.12
2017-05-28T15:01:29.186Z,4.85
2017-05-28T15:03:56.102Z,7.08
2017-05-28T15:06:23.057Z,4.12
2017-05-28T15:08:50.019Z,4.68
2017-05-28T15:11:16.968Z,5.25
2017-05-28T15:13:43.896Z,4.72
2017-05-28T15:16:10.814Z,4.90
2017-05-28T15:18:37.797Z,4.60
2017-05-28T15:21:04.716Z,5.45
2017-05-28T15:23:31.672Z,5.15
2017-05-28T15:25:58.615Z,4.48
2017-05-28T15:28:25.549Z,4.42
2017-05-28T15:30:52.500Z,4.85
2017-05-28T15:33:19.417Z,6.10
2017-05-28T15:35:46.349Z,8.87
2017-05-28T15:38:13.326Z,9.85
2017-05-28T15:40:40.255Z,8.08
2017-05-28T15:43:07.172Z,6.27
2017-05-28T15:45:34.116Z,5.18
2017-05-28T15:48:01.035Z,4.97
2017-05-28T15:50:27.975Z,6.35
2017-05-28T15:52:54.952Z,4.75
2017-05-28T15:55:21.874Z,5.15
2017-05-28T15:57:48.789Z,4.58
2017-05-28T16:00:15.737Z,5.22
2017-05-28T16:02:42.673Z,4.23
2017-05-28T16:05:09.588Z,5.13
2017-05-28T16:07:36.523Z,4.73
2017-05-28T16:10:03.444Z,3.82
2017-05-28T16:12:30.504Z,4.43
2017-05-28T16:14:57.516Z,4.12
2017-05-28T16:17:24.450Z,6.47
2017-05-28T16:19:51.392Z,5.22
2017-05-28T16:22:18.325Z,4.18
2017-05-28T16:24:45.288Z,4.37
2017-05-28T16:27:12.348Z,4.53
2017-05-28T16:29:39.280Z,4.47
2017-05-28T16:32:05.488Z,4.63
2017-05-28T16:34:32.429Z,5.25
2017-05-28T16:36:59.417Z,4.53
2017-05-28T16:39:26.364Z,4.12
2017-05-28T16:41:53.294Z,5.13
2017-05-28T16:44:20.215Z,4.12
2017-05-28T16:46:47.174Z,4.50
2017-05-28T16:49:14.129Z,4.50
2017-05-28T16:51:41.086Z,4.13
2017-05-28T16:54:08.024Z,4.75
2017-05-28T16:56:34.983Z,4.62
2017-05-28T16:59:01.912Z,3.98
2017-05-28T17:01:28.833Z,4.62
2017-05-28T17:03:55.767Z,3.75
2017-05-28T17:06:22.704Z,4.50
2017-05-28T17:08:49.648Z,4.57
2017-05-28T17:11:16.597Z,4.45
2017-05-28T17:13:43.547Z,4.22
2017-05-28T17:16:10.473Z,4.42
2017-05-28T17:18:37.427Z,4.02
2017-05-28T17:21:04.381Z,4.82
2017-05-28T17:23:31.304Z,5.03
2017-05-28T17:25:58.224Z,4.73
2017-05-28T17:28:25.170Z,4.10
2017-05-28T17:30:52.099Z,4.67
2017-05-28T17:33:19.067Z,4.38
2017-05-28T17:35:45.991Z,4.20
2017-05-28T17:38:12.908Z,5.52
2017-05-28T17:40:39.848Z,4.60
2017-05-28T17:43:06.784Z,4.23
2017-05-28T17:45:33.749Z,4.62
2017-05-28T17:48:00.696Z,4.52
2017-05-28T17:50:27.620Z,4.40
2017-05-28T17:52:54.577Z,4.50
2017-05-28T17:55:21.556Z,4.38
2017-05-28T17:57:48.523Z,4.53
2017-05-28T18:00:15.551Z,4.57
2017-05-28T18:02:42.536Z,4.50
2017-05-28T18:05:09.502Z,4.90
2017-05-28T18:07:36.436Z,4.98
2017-05-28T18:10:03.381Z,4.32
2017-05-28T18:12:30.336Z,5.98
2017-05-28T18:14:57.508Z,4.52
2017-05-28T18:17:24.420Z,4.38
2017-05-28T18:19:51.420Z,4.55
2017-05-28T18:22:18.348Z,4.27
2017-05-28T18:24:45.330Z,5.73
2017-05-28T18:27:12.296Z,4.77
2017-05-28T18:29:39.269Z,5.12
2017-05-28T18:32:06.222Z,5.27
2017-05-28T18:34:33.186Z,5.30
2017-05-28T18:37:00.168Z,4.98
2017-05-28T18:39:27.092Z,5.68
2017-05-28T18:41:53.995Z,7.58
2017-05-28T18:44:20.956Z,4.75
2017-05-28T18:46:47.881Z,4.95
2017-05-28T18:49:14.845Z,5.03
2017-05-28T18:51:41.784Z,5.17
2017-05-28T18:54:08.741Z,5.12
2017-05-28T18:56:35.716Z,5.72
2017-05-28T18:59:02.630Z,5.77
2017-05-28T19:01:29.600Z,5.03
2017-05-28T19:03:56.537Z,5.45
2017-05-28T19:06:23.498Z,5.53
2017-05-28T19:08:50.463Z,5.37
2017-05-28T19:11:17.384Z,5.75
2017-05-28T19:13:44.348Z,4.82
2017-05-28T19:16:11.289Z,5.50
2017-05-28T19:18:38.273Z,5.02
2017-05-28T19:21:05.200Z,5.95
2017-05-28T19:23:32.059Z,5.55
2017-05-28T19:25:59.054Z,5.35
2017-05-28T19:28:25.997Z,5.75
2017-05-28T19:30:52.957Z,5.87
2017-05-28T19:33:19.957Z,6.97
2017-05-28T19:35:46.897Z,5.97
2017-05-28T19:38:13.824Z,5.38
2017-05-28T19:40:40.770Z,6.18
2017-05-28T19:43:07.707Z,5.18
2017-05-28T19:45:34.684Z,5.63
2017-05-28T19:48:01.606Z,6.00
2017-05-28T19:50:28.565Z,6.48
2017-05-28T19:52:55.516Z,5.93
2017-05-28T19:55:22.455Z,6.03
2017-05-28T19:57:49.388Z,6.00
2017-05-28T20:00:16.331Z,6.33
2017-05-28T20:02:43.264Z,6.37
2017-05-28T20:05:10.163Z,6.43
2017-05-28T20:07:37.124Z,6.37
2017-05-28T20:10:04.041Z,5.88
2017-05-28T20:12:30.984Z,5.75
2017-05-28T20:14:57.956Z,5.90
2017-05-28T20:17:24.895Z,6.87
2017-05-28T20:19:51.836Z,6.18
2017-05-28T20:22:18.809Z,6.22
2017-05-28T20:24:46.080Z,6.07
2017-05-28T20:27:12.996Z,6.08
2017-05-28T20:29:39.954Z,6.05
2017-05-28T20:32:06.945Z,5.97
2017-05-28T20:34:33.876Z,8.40
2017-05-28T20:37:00.845Z,5.77
2017-05-28T20:39:27.778Z,5.90
2017-05-28T20:41:54.700Z,6.13
2017-05-28T20:44:21.655Z,6.35
2017-05-28T20:46:48.580Z,5.97
2017-05-28T20:49:15.550Z,6.20
2017-05-28T20:51:42.513Z,6.80
2017-05-28T20:54:09.443Z,5.93
2017-05-28T20:56:36.377Z,6.58
2017-05-28T20:59:03.379Z,6.03
2017-05-28T21:01:30.312Z,6.38
2017-05-28T21:03:57.238Z,5.77
2017-05-28T21:06:24.194Z,6.50
2017-05-28T21:08:51.129Z,6.52
2017-05-28T21:11:18.052Z,6.15
2017-05-28T21:13:45.033Z,6.18
2017-05-28T21:16:11.972Z,6.43
2017-05-28T21:18:38.953Z,7.43
2017-05-28T21:21:05.885Z,8.08
2017-05-28T21:23:32.843Z,8.97
2017-05-28T21:25:59.822Z,8.42
2017-05-28T21:28:26.771Z,8.35
2017-05-28T21:30:53.692Z,8.53
2017-05-28T21:33:20.661Z,8.22
2017-05-28T21:35:47.627Z,7.93
2017-05-28T21:38:14.553Z,7.75
2017-05-28T21:40:41.555Z,7.57
2017-05-28T21:43:08.485Z,6.58
2017-05-28T21:45:34.668Z,6.47
2017-05-28T21:48:01.616Z,6.88
2017-05-28T21:50:28.556Z,6.40
2017-05-28T21:52:55.519Z,6.20
2017-05-28T21:55:22.449Z,7.50
2017-05-28T21:57:49.372Z,6.60
2017-05-28T22:00:16.336Z,6.48
2017-05-28T22:02:43.269Z,6.52
2017-05-28T22:05:10.207Z,6.27
2017-05-28T22:07:37.199Z,6.67
2017-05-28T22:10:04.136Z,6.75
2017-05-28T22:12:31.253Z,6.65
2017-05-28T22:14:58.221Z,6.08
2017-05-28T22:17:25.208Z,6.80
2017-05-28T22:19:52.139Z,6.52
2017-05-28T22:22:19.124Z,6.78
2017-05-28T22:24:46.065Z,9.18
2017-05-28T22:27:13.021Z,7.03
2017-05-28T22:29:42.268Z,6.40
2017-05-28T22:32:09.225Z,6.23
2017-05-28T22:34:36.163Z,6.47
2017-05-28T22:37:03.325Z,6.73
2017-05-28T22:39:30.261Z,6.95
2017-05-28T22:41:57.185Z,6.17
2017-05-28T22:44:24.128Z,6.25
2017-05-28T22:46:51.066Z,6.42
2017-05-28T22:49:18.021Z,6.40
2017-05-28T22:51:44.956Z,7.10
2017-05-28T22:54:11.901Z,6.60
2017-05-28T22:56:38.860Z,7.07
2017-05-28T22:59:05.789Z,7.13
2017-05-28T23:01:32.704Z,7.55
2017-05-28T23:03:59.648Z,6.75
2017-05-28T23:06:26.581Z,6.92
2017-05-28T23:08:53.504Z,6.53
2017-05-28T23:11:20.473Z,6.70
2017-05-28T23:13:47.393Z,7.00
2017-05-28T23:16:14.305Z,6.93
2017-05-28T23:18:41.296Z,7.13
2017-05-28T23:21:08.255Z,7.27
2017-05-28T23:23:35.177Z,6.75
2017-05-28T23:26:02.129Z,6.73
2017-05-28T23:28:29.072Z,7.08
2017-05-28T23:30:56.092Z,7.28
2017-05-28T23:33:23.009Z,6.85
2017-05-28T23:35:49.949Z,6.13
2017-05-28T23:38:16.904Z,7.72
2017-05-28T23:40:43.812Z,6.38
2017-05-28T23:43:10.774Z,6.82
2017-05-28T23:45:37.705Z,6.47
2017-05-28T23:48:04.641Z,7.32
2017-05-28T23:50:31.600Z,7.03
2017-05-28T23:52:58.584Z,6.52
2017-05-28T23:55:25.512Z,6.38
2017-05-28T23:57:52.463Z,6.63
